createdAt,value
2022-12-31T00:00:34.791Z,4.45
2022-12-31T00:03:03.187Z,6.38
2022-12-31T00:05:32.062Z,6.95
2022-12-31T00:07:59.219Z,4.50
2022-12-31T00:10:26.522Z,7.60
2022-12-31T00:12:54.028Z,3.90
2022-12-31T00:15:21.539Z,5.05
2022-12-31T00:17:48.881Z,4.03
2022-12-31T00:20:16.710Z,7.75
2022-12-31T00:22:43.914Z,4.82
2022-12-31T00:25:11.102Z,6.53
2022-12-31T00:27:38.775Z,7.25
2022-12-31T00:30:06.439Z,6.80
2022-12-31T00:32:33.798Z,4.30
2022-12-31T00:35:01.043Z,3.38
2022-12-31T00:37:30.193Z,5.82
2022-12-31T00:39:57.340Z,4.85
2022-12-31T00:42:24.569Z,4.93
2022-12-31T00:44:51.718Z,3.92
2022-12-31T00:47:19.015Z,4.30
2022-12-31T00:49:48.008Z,5.20
2022-12-31T00:52:17.004Z,3.55
2022-12-31T00:54:44.657Z,3.72
2022-12-31T00:57:12.294Z,3.50
2022-12-31T00:59:39.756Z,5.28
2022-12-31T01:02:07.049Z,4.07
2022-12-31T01:04:34.749Z,5.03
2022-12-31T01:07:02.218Z,3.95
2022-12-31T01:09:29.470Z,4.78
2022-12-31T01:11:56.953Z,5.03
2022-12-31T01:14:24.213Z,3.20
2022-12-31T01:16:53.555Z,3.58
2022-12-31T01:19:26.350Z,4.57
2022-12-31T01:21:54.596Z,3.63
2022-12-31T01:24:22.382Z,4.40
2022-12-31T01:26:51.080Z,3.53
2022-12-31T01:29:19.871Z,4.32
2022-12-31T01:31:47.195Z,7.10
2022-12-31T01:34:14.933Z,6.85
2022-12-31T01:36:42.199Z,4.18
2022-12-31T01:39:11.115Z,4.25
2022-12-31T01:41:41.753Z,6.30
2022-12-31T01:44:11.933Z,5.13
2022-12-31T01:46:39.399Z,7.47
2022-12-31T01:49:22.888Z,9.15
2022-12-31T01:52:17.571Z,21.70
2022-12-31T01:54:49.849Z,22.55
2022-12-31T01:57:20.668Z,35.17
2022-12-31T01:59:48.037Z,43.38
2022-12-31T02:02:16.538Z,25.20
2022-12-31T02:04:44.069Z,19.60
2022-12-31T02:07:12.711Z,14.32
2022-12-31T02:09:42.363Z,10.85
2022-12-31T02:12:10.702Z,8.07
2022-12-31T02:14:48.297Z,9.07
2022-12-31T02:17:40.257Z,9.93
2022-12-31T02:20:52.462Z,22.38
2022-12-31T02:24:14.052Z,15.65
2022-12-31T02:26:55.171Z,8.07
2022-12-31T02:29:53.428Z,8.82
2022-12-31T02:32:28.481Z,6.80
2022-12-31T02:37:34.017Z,6.50
2022-12-31T02:40:01.552Z,8.05
2022-12-31T02:42:30.447Z,6.57
2022-12-31T02:44:57.599Z,6.18
2022-12-31T02:48:19.337Z,5.88
2022-12-31T02:51:08.223Z,5.80
2022-12-31T02:53:58.815Z,5.50
2022-12-31T02:56:25.922Z,7.43
2022-12-31T02:59:28.441Z,5.25
2022-12-31T03:02:14.336Z,6.05
2022-12-31T03:05:02.507Z,5.10
2022-12-31T03:07:33.035Z,5.65
2022-12-31T03:10:01.602Z,3.88
2022-12-31T03:12:48.841Z,6.13
2022-12-31T03:15:26.642Z,5.05
2022-12-31T03:18:03.222Z,7.82
2022-12-31T03:21:02.475Z,8.55
2022-12-31T03:23:42.338Z,7.55
2022-12-31T03:26:11.586Z,7.38
2022-12-31T03:28:41.432Z,6.38
2022-12-31T03:31:09.250Z,7.03
2022-12-31T03:33:38.708Z,5.82
2022-12-31T03:36:09.116Z,6.35
2022-12-31T03:38:36.475Z,6.68
2022-12-31T03:41:04.351Z,8.77
2022-12-31T03:43:31.912Z,5.50
2022-12-31T03:46:01.767Z,5.05
2022-12-31T03:48:29.499Z,5.88
2022-12-31T03:50:56.746Z,8.65
2022-12-31T03:53:25.628Z,9.55
2022-12-31T03:55:53.746Z,7.78
2022-12-31T03:58:22.017Z,6.70
2022-12-31T04:00:51.193Z,8.55
2022-12-31T04:03:18.680Z,7.70
2022-12-31T04:05:52.955Z,12.38
2022-12-31T04:08:20.099Z,10.75
2022-12-31T04:10:47.992Z,12.45
2022-12-31T04:13:15.120Z,12.13
2022-12-31T04:15:42.470Z,11.65
2022-12-31T04:18:09.868Z,14.00
2022-12-31T04:20:37.118Z,10.07
2022-12-31T04:23:05.929Z,14.20
2022-12-31T04:25:33.735Z,11.00
2022-12-31T04:28:00.965Z,14.43
2022-12-31T04:30:29.333Z,10.65
2022-12-31T04:32:56.676Z,11.63
2022-12-31T04:35:24.087Z,11.23
2022-12-31T04:37:51.401Z,12.15
2022-12-31T04:40:19.708Z,15.50
2022-12-31T04:42:47.202Z,17.30
2022-12-31T04:45:15.084Z,16.50
2022-12-31T04:47:43.099Z,12.10
2022-12-31T04:50:10.888Z,15.98
2022-12-31T04:52:42.702Z,17.70
2022-12-31T04:55:12.100Z,18.92
2022-12-31T04:57:41.696Z,15.15
2022-12-31T05:00:09.409Z,13.38
2022-12-31T05:02:39.323Z,16.40
2022-12-31T05:05:07.230Z,16.13
2022-12-31T05:07:36.001Z,20.77
2022-12-31T05:10:04.008Z,22.38
2022-12-31T05:12:31.463Z,22.42
2022-12-31T05:14:58.975Z,19.90
2022-12-31T05:17:27.184Z,26.40
2022-12-31T05:19:54.549Z,20.55
2022-12-31T05:22:30.783Z,22.40
2022-12-31T05:24:59.315Z,15.93
2022-12-31T05:27:28.010Z,21.95
2022-12-31T05:29:55.249Z,17.70
2022-12-31T05:32:24.791Z,20.95
2022-12-31T05:34:53.797Z,15.93
2022-12-31T05:37:21.025Z,17.88
2022-12-31T05:39:48.731Z,20.30
2022-12-31T05:42:16.041Z,15.77
2022-12-31T05:44:43.197Z,14.50
2022-12-31T05:47:10.589Z,17.65
2022-12-31T05:49:37.851Z,14.68
2022-12-31T05:52:05.037Z,12.88
2022-12-31T05:54:32.306Z,13.25
2022-12-31T05:56:59.968Z,13.50
2022-12-31T05:59:27.094Z,12.95
2022-12-31T06:01:54.510Z,13.98
2022-12-31T06:04:21.765Z,15.57
2022-12-31T06:06:49.341Z,14.98
2022-12-31T06:09:18.418Z,14.95
2022-12-31T06:11:47.031Z,14.07
2022-12-31T06:14:14.830Z,15.98
2022-12-31T06:16:42.467Z,16.75
2022-12-31T06:19:10.265Z,17.15
2022-12-31T06:21:37.680Z,13.65
2022-12-31T06:24:05.507Z,17.20
2022-12-31T06:26:32.964Z,15.02
2022-12-31T06:29:00.280Z,17.05
2022-12-31T06:31:27.796Z,15.65
2022-12-31T06:33:55.304Z,17.35
2022-12-31T06:36:22.680Z,18.40
2022-12-31T06:38:50.601Z,19.83
2022-12-31T06:41:19.069Z,19.23
2022-12-31T06:43:46.672Z,20.55
2022-12-31T06:46:17.738Z,20.08
2022-12-31T06:48:45.289Z,19.50
2022-12-31T06:51:17.427Z,20.63
2022-12-31T06:53:46.976Z,20.88
2022-12-31T06:56:15.728Z,18.20
2022-12-31T06:58:43.725Z,21.48
2022-12-31T07:01:48.508Z,19.40
2022-12-31T07:04:52.784Z,20.95
2022-12-31T07:07:46.521Z,23.20
2022-12-31T07:10:39.393Z,21.92
2022-12-31T07:13:45.371Z,22.15
2022-12-31T07:16:18.661Z,25.48
2022-12-31T07:18:51.577Z,26.27
2022-12-31T07:21:28.243Z,25.90
2022-12-31T07:23:55.948Z,20.27
2022-12-31T07:26:26.032Z,26.52
2022-12-31T07:29:29.215Z,31.70
2022-12-31T07:32:14.943Z,30.05
2022-12-31T07:35:05.159Z,34.78
2022-12-31T07:37:54.128Z,31.60
2022-12-31T07:40:27.532Z,28.67
2022-12-31T07:43:03.268Z,35.40
2022-12-31T07:45:51.496Z,30.92
2022-12-31T07:48:27.758Z,29.88
2022-12-31T07:50:56.798Z,27.08
2022-12-31T07:53:26.119Z,31.15
2022-12-31T07:56:00.147Z,32.63
2022-12-31T07:58:27.359Z,28.80
2022-12-31T08:00:58.164Z,32.00
2022-12-31T08:03:31.605Z,39.45
2022-12-31T08:06:19.520Z,32.53
2022-12-31T08:09:12.869Z,27.67
2022-12-31T08:11:54.229Z,26.55
2022-12-31T08:14:22.348Z,30.88
2022-12-31T08:16:50.329Z,31.50
2022-12-31T08:19:28.886Z,33.08
2022-12-31T08:22:14.565Z,26.67
2022-12-31T08:24:52.908Z,32.28
2022-12-31T08:27:38.587Z,24.08
2022-12-31T08:30:10.928Z,22.73
2022-12-31T08:33:16.003Z,24.50
2022-12-31T08:35:52.985Z,20.52
2022-12-31T08:38:43.662Z,20.15
2022-12-31T08:41:29.941Z,20.25
2022-12-31T08:44:20.435Z,18.90
2022-12-31T08:47:00.165Z,20.25
2022-12-31T08:49:28.834Z,20.05
2022-12-31T08:51:57.106Z,25.02
2022-12-31T08:54:24.781Z,25.95
2022-12-31T08:57:10.970Z,21.13
2022-12-31T09:00:12.058Z,22.45
2022-12-31T09:02:51.298Z,18.05
2022-12-31T09:05:25.836Z,20.42
2022-12-31T09:08:22.980Z,21.88
2022-12-31T09:11:22.616Z,21.08
2022-12-31T09:14:06.577Z,28.17
2022-12-31T09:16:57.227Z,19.90
2022-12-31T09:19:24.572Z,18.85
2022-12-31T09:21:52.092Z,18.73
2022-12-31T09:24:19.772Z,18.65
2022-12-31T09:27:31.126Z,22.83
2022-12-31T09:30:11.720Z,17.55
2022-12-31T09:33:12.932Z,21.80
2022-12-31T09:35:56.166Z,19.15
2022-12-31T09:38:44.309Z,18.27
2022-12-31T09:41:36.375Z,15.63
2022-12-31T09:44:19.110Z,17.27
2022-12-31T09:47:04.337Z,14.93
2022-12-31T09:52:25.947Z,16.23
2022-12-31T09:54:59.418Z,15.18
2022-12-31T09:58:15.608Z,16.13
2022-12-31T10:01:07.779Z,16.60
2022-12-31T10:03:53.699Z,17.50
2022-12-31T10:06:29.276Z,18.65
2022-12-31T10:09:06.052Z,24.42
2022-12-31T10:11:51.689Z,18.70
2022-12-31T10:14:47.426Z,21.05
2022-12-31T10:17:30.156Z,19.25
2022-12-31T10:20:28.218Z,20.08
2022-12-31T10:22:55.722Z,19.15
2022-12-31T10:25:50.194Z,22.15
2022-12-31T10:28:49.266Z,21.50
2022-12-31T10:31:40.501Z,18.73
2022-12-31T10:34:22.730Z,21.65
2022-12-31T10:37:11.276Z,15.93
2022-12-31T10:39:51.855Z,23.42
2022-12-31T10:42:25.196Z,26.13
2022-12-31T10:45:29.998Z,21.70
2022-12-31T10:47:59.926Z,20.73
2022-12-31T10:51:05.620Z,22.17
2022-12-31T10:53:35.605Z,22.15
2022-12-31T10:56:54.266Z,25.13
2022-12-31T10:59:24.226Z,20.90
2022-12-31T11:02:07.017Z,18.50
2022-12-31T11:05:03.593Z,21.15
2022-12-31T11:07:56.770Z,17.83
2022-12-31T11:10:50.301Z,18.25
2022-12-31T11:13:42.499Z,20.98
2022-12-31T11:16:20.534Z,17.40
2022-12-31T11:19:10.296Z,15.77
2022-12-31T11:21:56.363Z,15.95
2022-12-31T11:24:26.627Z,15.57
2022-12-31T11:27:33.701Z,16.83
2022-12-31T11:30:06.141Z,14.98
2022-12-31T11:32:52.287Z,17.17
2022-12-31T11:35:32.894Z,17.35
2022-12-31T11:38:23.443Z,15.40
2022-12-31T11:41:35.291Z,16.35
2022-12-31T11:44:30.650Z,15.55
2022-12-31T11:47:19.829Z,14.50
2022-12-31T11:50:15.490Z,14.70
2022-12-31T11:52:55.375Z,16.77
2022-12-31T11:55:41.301Z,15.10
2022-12-31T11:58:15.948Z,16.30
2022-12-31T12:00:54.845Z,14.88
2022-12-31T12:03:23.378Z,15.98
2022-12-31T12:05:51.639Z,19.45
2022-12-31T12:08:18.961Z,17.40
2022-12-31T12:10:51.110Z,17.60
2022-12-31T12:13:18.310Z,17.10
2022-12-31T12:15:49.637Z,17.13
2022-12-31T12:18:44.282Z,17.02
2022-12-31T12:21:22.422Z,15.70
2022-12-31T12:24:03.170Z,17.25
2022-12-31T12:26:41.934Z,16.15
2022-12-31T12:29:15.531Z,16.35
2022-12-31T12:31:43.483Z,19.35
2022-12-31T12:34:29.293Z,16.38
2022-12-31T12:36:56.904Z,19.33
2022-12-31T12:39:29.895Z,19.83
2022-12-31T12:42:15.467Z,17.88
2022-12-31T12:44:42.977Z,19.00
2022-12-31T12:47:16.361Z,19.40
2022-12-31T12:49:49.590Z,20.55
2022-12-31T12:52:35.898Z,23.83
2022-12-31T12:55:12.127Z,18.20
2022-12-31T12:57:46.631Z,20.20
2022-12-31T13:00:25.676Z,20.00
2022-12-31T13:03:10.476Z,19.52
2022-12-31T13:05:58.250Z,20.13
2022-12-31T13:08:25.567Z,19.27
2022-12-31T13:11:21.798Z,17.20
2022-12-31T13:14:13.649Z,18.17
2022-12-31T13:16:47.662Z,21.10
2022-12-31T13:19:39.250Z,21.30
2022-12-31T13:22:34.416Z,21.67
2022-12-31T13:25:24.846Z,21.13
2022-12-31T13:27:54.375Z,20.85
2022-12-31T13:30:31.102Z,21.63
2022-12-31T13:33:04.373Z,23.17
2022-12-31T13:35:47.054Z,19.60
2022-12-31T13:38:23.821Z,19.83
2022-12-31T13:41:18.213Z,19.92
2022-12-31T13:43:58.807Z,19.55
2022-12-31T13:46:29.192Z,21.83
2022-12-31T13:49:05.179Z,21.02
2022-12-31T13:51:49.567Z,18.33
2022-12-31T13:54:29.152Z,20.97
2022-12-31T13:57:02.147Z,21.52
2022-12-31T13:59:35.696Z,27.75
2022-12-31T14:02:27.788Z,27.38
2022-12-31T14:05:21.055Z,20.50
2022-12-31T14:07:54.001Z,21.80
2022-12-31T14:10:45.322Z,23.77
2022-12-31T14:13:34.852Z,29.70
2022-12-31T14:16:12.585Z,20.80
2022-12-31T14:18:47.916Z,36.95
2022-12-31T14:21:23.361Z,32.97
2022-12-31T14:24:09.899Z,24.42
2022-12-31T14:26:45.736Z,17.30
2022-12-31T14:29:15.742Z,72.07
2022-12-31T14:32:24.304Z,68.07
2022-12-31T14:35:06.960Z,42.28
2022-12-31T14:37:50.719Z,27.52
2022-12-31T14:40:35.757Z,20.58
2022-12-31T14:43:35.633Z,93.15
2022-12-31T14:46:31.158Z,40.53
2022-12-31T14:49:36.161Z,69.90
2022-12-31T14:52:19.933Z,52.72
2022-12-31T14:54:58.570Z,20.67
2022-12-31T14:57:54.271Z,28.90
2022-12-31T15:00:35.468Z,56.03
2022-12-31T15:03:06.814Z,41.92
2022-12-31T15:05:36.848Z,34.75
2022-12-31T15:08:22.262Z,21.55
2022-12-31T15:11:01.438Z,93.53
2022-12-31T15:13:34.499Z,27.83
2022-12-31T15:16:07.754Z,29.27
2022-12-31T15:18:54.036Z,57.38
2022-12-31T15:22:00.217Z,41.88
2022-12-31T15:24:31.272Z,48.22
2022-12-31T15:27:01.987Z,77.00
2022-12-31T15:29:36.676Z,19.75
2022-12-31T15:32:08.089Z,22.70
2022-12-31T15:34:37.211Z,35.28
2022-12-31T15:37:25.935Z,17.15
2022-12-31T15:40:25.323Z,56.75
2022-12-31T15:42:59.083Z,123.63
2022-12-31T15:45:41.354Z,30.65
2022-12-31T15:48:24.055Z,50.38
2022-12-31T15:50:54.822Z,167.57
2022-12-31T15:53:32.516Z,91.57
2022-12-31T15:56:02.212Z,55.13
2022-12-31T15:58:38.180Z,58.08
2022-12-31T16:01:24.212Z,16.08
2022-12-31T16:04:06.208Z,36.63
2022-12-31T16:06:37.226Z,30.48
2022-12-31T16:09:09.725Z,24.33
2022-12-31T16:11:42.092Z,19.83
2022-12-31T16:14:20.164Z,27.65
2022-12-31T16:16:58.038Z,22.10
2022-12-31T16:19:31.723Z,24.27
2022-12-31T16:22:03.784Z,95.47
2022-12-31T16:24:33.782Z,63.20
2022-12-31T16:27:07.621Z,79.20
2022-12-31T16:29:37.545Z,47.83
2022-12-31T16:32:05.024Z,17.88
2022-12-31T16:34:38.595Z,24.25
2022-12-31T16:37:17.507Z,21.88
2022-12-31T16:39:56.897Z,17.67
2022-12-31T16:42:27.039Z,65.43
2022-12-31T16:44:56.995Z,26.95
2022-12-31T16:47:36.667Z,18.90
2022-12-31T16:50:13.926Z,22.50
2022-12-31T16:52:44.686Z,31.13
2022-12-31T16:55:23.753Z,18.42
2022-12-31T16:57:58.924Z,22.63
2022-12-31T17:00:26.999Z,19.35
2022-12-31T17:02:57.217Z,26.02
2022-12-31T17:05:26.516Z,18.98
2022-12-31T17:07:54.586Z,18.70
2022-12-31T17:10:26.980Z,24.35
2022-12-31T17:13:28.234Z,26.95
2022-12-31T17:15:52.516Z,31.65
2022-12-31T17:18:24.333Z,42.83
2022-12-31T17:20:53.644Z,55.45
2022-12-31T17:23:33.977Z,31.90
2022-12-31T17:26:08.474Z,40.33
2022-12-31T17:29:03.374Z,43.03
2022-12-31T17:31:36.923Z,37.17
2022-12-31T17:34:13.530Z,51.10
2022-12-31T17:36:58.785Z,121.65
2022-12-31T17:39:28.057Z,302.90
2022-12-31T17:41:57.946Z,111.88
2022-12-31T17:44:29.143Z,41.90
2022-12-31T17:46:56.604Z,137.63
2022-12-31T17:49:30.196Z,67.03
2022-12-31T17:51:57.713Z,46.78
2022-12-31T17:54:24.933Z,63.83
2022-12-31T17:56:53.036Z,67.40
2022-12-31T17:59:29.799Z,62.75
2022-12-31T18:02:02.525Z,33.03
2022-12-31T18:04:29.809Z,34.30
2022-12-31T18:06:57.133Z,35.88
2022-12-31T18:09:24.357Z,35.28
2022-12-31T18:11:54.341Z,35.90
2022-12-31T18:14:24.218Z,34.38
2022-12-31T18:16:51.420Z,35.83
2022-12-31T18:19:45.681Z,38.03
2022-12-31T18:22:05.877Z,35.47
2022-12-31T18:24:33.351Z,39.17
2022-12-31T18:27:00.690Z,37.80
2022-12-31T18:29:27.811Z,32.75
2022-12-31T18:31:55.183Z,39.28
2022-12-31T18:34:22.405Z,39.13
2022-12-31T18:36:49.534Z,35.88
2022-12-31T18:39:17.007Z,39.95
2022-12-31T18:41:49.175Z,35.28
2022-12-31T18:44:16.592Z,35.75
2022-12-31T18:46:43.841Z,35.35
2022-12-31T18:49:11.124Z,36.58
2022-12-31T18:51:38.437Z,37.15
2022-12-31T18:54:10.035Z,40.60
2022-12-31T18:56:41.829Z,39.90
2022-12-31T18:59:13.736Z,39.28
2022-12-31T19:01:41.696Z,42.63
2022-12-31T19:04:24.757Z,38.05
2022-12-31T19:06:54.821Z,38.40
2022-12-31T19:09:44.714Z,34.88
2022-12-31T19:12:14.532Z,27.80
2022-12-31T19:14:41.781Z,35.58
2022-12-31T19:19:35.184Z,33.22
2022-12-31T19:22:03.158Z,31.60
2022-12-31T19:24:30.539Z,33.53
2022-12-31T19:26:57.735Z,35.20
2022-12-31T19:29:28.690Z,34.53
2022-12-31T19:31:55.996Z,36.10
2022-12-31T19:34:23.369Z,33.67
2022-12-31T19:36:50.529Z,41.40
2022-12-31T19:39:20.408Z,32.42
2022-12-31T19:41:54.731Z,38.53
2022-12-31T19:44:26.684Z,41.60
2022-12-31T19:46:54.444Z,36.15
2022-12-31T19:49:22.059Z,34.47
2022-12-31T19:51:49.365Z,33.45
2022-12-31T19:54:16.708Z,33.83
2022-12-31T19:56:44.143Z,33.17
2022-12-31T19:59:11.956Z,32.13
2022-12-31T20:01:39.557Z,32.20
2022-12-31T20:04:07.140Z,34.92
2022-12-31T20:06:35.444Z,34.58
2022-12-31T20:09:03.617Z,32.97
2022-12-31T20:11:31.631Z,32.42
2022-12-31T20:13:58.861Z,32.33
2022-12-31T20:16:33.983Z,35.33
2022-12-31T20:19:01.626Z,36.38
2022-12-31T20:21:29.601Z,34.67
2022-12-31T20:23:56.922Z,33.78
2022-12-31T20:26:25.106Z,33.75
2022-12-31T20:28:53.456Z,35.30
2022-12-31T20:31:23.694Z,34.33
2022-12-31T20:33:51.565Z,33.70
2022-12-31T20:36:18.749Z,33.83
2022-12-31T20:38:46.270Z,31.10
2022-12-31T20:41:22.064Z,33.97
2022-12-31T20:43:50.372Z,33.58
2022-12-31T20:46:25.056Z,31.25
2022-12-31T20:48:54.916Z,30.90
2022-12-31T20:51:22.938Z,31.73
2022-12-31T20:54:05.010Z,32.30
2022-12-31T20:56:35.798Z,32.05
2022-12-31T20:59:04.314Z,29.83
2022-12-31T21:01:55.095Z,29.27
2022-12-31T21:04:19.420Z,287.60
2022-12-31T21:06:48.262Z,259.30
2022-12-31T21:09:15.496Z,157.48
2022-12-31T21:12:01.536Z,82.63
2022-12-31T21:14:29.250Z,62.63
2022-12-31T21:16:56.554Z,51.20
2022-12-31T21:19:23.676Z,57.63
2022-12-31T21:21:51.021Z,51.13
2022-12-31T21:24:23.605Z,52.25
2022-12-31T21:26:51.514Z,57.13
2022-12-31T21:29:18.823Z,51.47
2022-12-31T21:31:46.158Z,43.45
2022-12-31T21:34:13.559Z,44.72
2022-12-31T21:36:40.674Z,42.30
2022-12-31T21:39:07.764Z,41.72
2022-12-31T21:41:53.030Z,44.45
2022-12-31T21:44:24.697Z,48.63
2022-12-31T21:47:33.368Z,50.45
2022-12-31T21:49:44.030Z,46.10
2022-12-31T21:52:27.914Z,57.75
2022-12-31T21:55:14.953Z,46.15
2022-12-31T21:58:15.641Z,46.00
2022-12-31T22:00:49.578Z,44.63
2022-12-31T22:03:27.964Z,40.22
2022-12-31T22:06:03.040Z,35.53
2022-12-31T22:08:31.781Z,35.95
2022-12-31T22:10:58.976Z,32.50
2022-12-31T22:13:26.222Z,29.80
2022-12-31T22:16:00.414Z,31.83
2022-12-31T22:18:34.141Z,29.67
2022-12-31T22:21:13.725Z,28.75
2022-12-31T22:23:46.627Z,27.38
2022-12-31T22:26:15.993Z,31.25
2022-12-31T22:28:44.318Z,28.27
2022-12-31T22:31:24.728Z,25.67
2022-12-31T22:33:52.597Z,25.38
2022-12-31T22:36:22.311Z,23.33
2022-12-31T22:38:51.584Z,22.92
2022-12-31T22:41:20.868Z,22.38
2022-12-31T22:43:58.514Z,23.77
2022-12-31T22:46:30.538Z,27.35
2022-12-31T22:48:59.368Z,24.77
2022-12-31T22:51:56.582Z,24.55
2022-12-31T22:54:15.385Z,26.58
2022-12-31T22:56:42.914Z,31.10
2022-12-31T22:59:11.135Z,30.17
2022-12-31T23:01:38.522Z,27.85
2022-12-31T23:04:06.005Z,23.48
2022-12-31T23:06:43.701Z,24.40
2022-12-31T23:09:31.091Z,23.67
2022-12-31T23:12:00.812Z,21.92
2022-12-31T23:14:49.392Z,23.33
2022-12-31T23:17:38.449Z,21.55
2022-12-31T23:20:29.905Z,26.73
2022-12-31T23:23:07.087Z,31.40
2022-12-31T23:25:39.127Z,24.77
2022-12-31T23:28:07.558Z,25.23
2022-12-31T23:30:38.714Z,25.65
2022-12-31T23:33:07.083Z,23.45
2022-12-31T23:35:36.845Z,23.73
2022-12-31T23:38:06.270Z,19.92
2022-12-31T23:40:36.485Z,22.60
2022-12-31T23:43:08.249Z,20.85
2022-12-31T23:45:36.534Z,21.23
2022-12-31T23:48:04.094Z,18.70
2022-12-31T23:50:31.430Z,22.13
2022-12-31T23:52:59.046Z,23.35
2022-12-31T23:55:26.406Z,22.48
2022-12-31T23:57:53.898Z,20.77
